createdAt,value
2022-07-28T00:00:02.242Z,58.30
2022-07-28T00:02:29.107Z,58.20
2022-07-28T00:04:55.814Z,58.20
2022-07-28T00:07:22.638Z,58.30
2022-07-28T00:09:49.525Z,58.20
2022-07-28T00:12:16.636Z,58.20
2022-07-28T00:14:44.586Z,58.10
2022-07-28T00:17:11.654Z,58.20
2022-07-28T00:19:38.329Z,58.20
2022-07-28T00:22:05.039Z,58.20
2022-07-28T00:24:31.763Z,58.10
2022-07-28T00:26:58.550Z,58.20
2022-07-28T00:29:25.276Z,58.20
2022-07-28T00:32:11.832Z,58.20
2022-07-28T00:34:38.602Z,58.20
2022-07-28T00:37:08.489Z,58.10
2022-07-28T00:39:40.120Z,58.10
2022-07-28T00:42:06.887Z,58.10
2022-07-28T00:44:33.554Z,58.20
2022-07-28T00:47:00.235Z,58.20
2022-07-28T00:49:27.174Z,58.30
2022-07-28T00:51:54.141Z,58.30
2022-07-28T00:54:20.830Z,58.20
2022-07-28T00:56:47.421Z,58.20
2022-07-28T00:59:14.034Z,58.20
2022-07-28T01:01:41.125Z,58.20
2022-07-28T01:04:08.147Z,58.20
2022-07-28T01:06:52.587Z,58.20
2022-07-28T01:09:41.838Z,58.20
2022-07-28T01:12:20.782Z,58.20
2022-07-28T01:14:58.173Z,58.20
2022-07-28T01:17:35.809Z,58.20
2022-07-28T01:20:08.636Z,58.20
2022-07-28T01:22:45.234Z,58.20
2022-07-28T01:25:51.232Z,58.10
2022-07-28T01:28:32.045Z,58.20
2022-07-28T01:31:04.266Z,58.10
2022-07-28T01:33:41.669Z,58.10
2022-07-28T01:36:15.105Z,58.10
2022-07-28T01:38:43.657Z,58.10
2022-07-28T01:41:14.645Z,58.10
2022-07-28T01:43:45.753Z,58.10
2022-07-28T01:46:14.415Z,58.10
2022-07-28T01:48:44.020Z,58.10
2022-07-28T01:51:13.382Z,58.10
2022-07-28T01:53:40.806Z,58.10
2022-07-28T01:56:08.406Z,58.10
2022-07-28T01:58:36.516Z,58.10
2022-07-28T02:01:04.762Z,58.00
2022-07-28T02:03:32.613Z,58.10
2022-07-28T02:06:02.781Z,58.10
2022-07-28T02:08:32.381Z,58.00
2022-07-28T02:11:18.521Z,58.00
2022-07-28T02:13:47.939Z,58.00
2022-07-28T02:16:17.429Z,58.00
2022-07-28T02:18:46.713Z,58.00
2022-07-28T02:21:14.382Z,58.00
2022-07-28T02:23:45.085Z,57.90
2022-07-28T02:26:13.287Z,57.90
2022-07-28T02:28:43.562Z,57.90
2022-07-28T02:31:16.096Z,57.90
2022-07-28T02:33:59.826Z,57.90
2022-07-28T02:36:31.528Z,57.90
2022-07-28T02:39:06.244Z,57.90
2022-07-28T02:41:42.725Z,57.90
2022-07-28T02:44:15.941Z,57.90
2022-07-28T02:46:49.081Z,57.90
2022-07-28T02:49:23.624Z,57.80
2022-07-28T02:51:52.201Z,57.80
2022-07-28T02:54:20.354Z,57.80
2022-07-28T02:56:53.410Z,57.80
2022-07-28T02:59:21.745Z,57.80
2022-07-28T03:01:49.476Z,57.80
2022-07-28T03:04:17.525Z,57.70
2022-07-28T03:06:44.682Z,57.70
2022-07-28T03:09:11.630Z,57.70
2022-07-28T03:11:52.562Z,57.70
2022-07-28T03:14:19.189Z,57.70
2022-07-28T03:16:45.979Z,58.30
2022-07-28T03:19:12.572Z,57.60
2022-07-28T03:21:41.284Z,57.60
2022-07-28T03:24:10.479Z,57.60
2022-07-28T03:26:43.586Z,57.60
2022-07-28T03:29:11.598Z,57.60
2022-07-28T03:31:41.268Z,57.60
2022-07-28T03:34:11.044Z,57.60
2022-07-28T03:36:44.505Z,57.50
2022-07-28T03:39:12.215Z,57.50
2022-07-28T03:41:40.007Z,57.50
2022-07-28T03:44:07.398Z,57.50
2022-07-28T03:46:34.355Z,57.50
2022-07-28T03:49:01.024Z,57.50
2022-07-28T03:51:29.429Z,57.50
2022-07-28T03:53:56.095Z,58.10
2022-07-28T03:56:22.701Z,57.50
2022-07-28T03:58:49.314Z,57.40
2022-07-28T04:01:16.021Z,57.40
2022-07-28T04:03:44.405Z,57.40
2022-07-28T04:06:15.434Z,57.40
2022-07-28T04:08:43.311Z,57.30
2022-07-28T04:11:09.966Z,57.40
2022-07-28T04:13:37.023Z,57.40
2022-07-28T04:16:04.501Z,57.30
2022-07-28T04:18:31.160Z,57.30
2022-07-28T04:20:57.870Z,57.40
2022-07-28T04:23:24.917Z,57.30
2022-07-28T04:25:51.514Z,57.20
2022-07-28T04:28:18.166Z,57.30
2022-07-28T04:30:44.912Z,57.30
2022-07-28T04:33:13.255Z,57.30
2022-07-28T04:35:40.345Z,57.20
2022-07-28T04:38:07.669Z,57.20
2022-07-28T04:40:34.440Z,57.20
2022-07-28T04:43:01.382Z,57.20
2022-07-28T04:45:28.058Z,57.20
2022-07-28T04:47:54.665Z,52.30
2022-07-28T04:50:21.575Z,49.00
2022-07-28T04:52:49.730Z,49.20
2022-07-28T04:55:17.362Z,49.90
2022-07-28T04:57:44.476Z,50.80
2022-07-28T05:00:13.456Z,50.60
2022-07-28T05:02:41.717Z,50.60
2022-07-28T05:05:09.870Z,51.10
2022-07-28T05:07:38.191Z,51.00
2022-07-28T05:10:06.839Z,51.30
2022-07-28T05:12:33.648Z,51.20
2022-07-28T05:15:00.729Z,51.40
2022-07-28T05:17:27.562Z,51.20
2022-07-28T05:19:54.443Z,51.70
2022-07-28T05:22:21.099Z,52.10
2022-07-28T05:24:47.726Z,52.00
2022-07-28T05:27:14.328Z,52.20
2022-07-28T05:29:47.040Z,53.30
2022-07-28T05:32:16.334Z,52.20
2022-07-28T05:34:44.605Z,51.30
2022-07-28T05:37:11.252Z,51.20
2022-07-28T05:39:37.933Z,50.60
2022-07-28T05:42:04.801Z,50.10
2022-07-28T05:44:37.278Z,49.80
2022-07-28T05:47:04.958Z,50.10
2022-07-28T05:49:31.652Z,50.10
2022-07-28T05:51:58.284Z,50.20
2022-07-28T05:54:25.177Z,50.30
2022-07-28T05:56:52.735Z,50.50
2022-07-28T05:59:19.382Z,50.60
2022-07-28T06:01:46.526Z,50.70
2022-07-28T06:04:29.206Z,50.70
2022-07-28T06:06:56.246Z,50.80
2022-07-28T06:09:22.956Z,50.90
2022-07-28T06:11:50.543Z,51.00
2022-07-28T06:14:18.482Z,51.10
2022-07-28T06:16:45.606Z,51.10
2022-07-28T06:19:12.335Z,51.10
2022-07-28T06:21:38.958Z,51.20
2022-07-28T06:24:08.423Z,51.30
2022-07-28T06:26:42.251Z,51.30
2022-07-28T06:29:11.474Z,51.40
2022-07-28T06:31:38.921Z,51.40
2022-07-28T06:34:05.760Z,51.50
2022-07-28T06:36:32.390Z,51.60
2022-07-28T06:38:59.050Z,51.60
2022-07-28T06:41:25.750Z,51.70
2022-07-28T06:43:52.378Z,51.70
2022-07-28T06:46:19.563Z,51.90
2022-07-28T06:48:46.501Z,51.90
2022-07-28T06:51:14.966Z,51.90
2022-07-28T06:53:41.617Z,52.10
2022-07-28T06:56:10.869Z,52.10
2022-07-28T06:58:42.271Z,52.10
2022-07-28T07:01:14.680Z,52.20
2022-07-28T07:03:42.326Z,52.30
2022-07-28T07:06:10.681Z,52.20
2022-07-28T07:08:37.350Z,52.30
2022-07-28T07:11:03.972Z,52.40
2022-07-28T07:13:30.653Z,52.40
2022-07-28T07:15:57.365Z,52.40
2022-07-28T07:18:23.972Z,53.10
2022-07-28T07:20:50.632Z,52.50
2022-07-28T07:23:17.243Z,52.50
2022-07-28T07:25:44.026Z,52.60
2022-07-28T07:28:10.623Z,52.60
2022-07-28T07:30:37.250Z,52.70
2022-07-28T07:33:07.915Z,52.70
2022-07-28T07:35:37.864Z,52.70
2022-07-28T07:38:04.697Z,52.80
2022-07-28T07:40:31.826Z,52.80
2022-07-28T07:42:58.465Z,52.80
2022-07-28T07:45:25.055Z,52.80
2022-07-28T07:47:51.707Z,52.80
2022-07-28T07:50:18.303Z,52.90
2022-07-28T07:52:44.906Z,52.90
2022-07-28T07:55:11.694Z,52.90
2022-07-28T07:57:38.327Z,52.90
2022-07-28T08:00:05.644Z,53.00
2022-07-28T08:02:32.315Z,53.10
2022-07-28T08:04:58.980Z,53.00
2022-07-28T08:07:25.775Z,53.10
2022-07-28T08:09:52.505Z,53.10
2022-07-28T08:12:25.071Z,53.10
2022-07-28T08:14:52.579Z,53.10
2022-07-28T08:17:23.660Z,53.20
2022-07-28T08:19:52.810Z,53.20
2022-07-28T08:22:19.470Z,53.20
2022-07-28T08:24:46.209Z,53.20
2022-07-28T08:27:12.896Z,53.20
2022-07-28T08:29:39.646Z,53.30
2022-07-28T08:32:06.726Z,53.30
2022-07-28T08:34:35.040Z,53.30
2022-07-28T08:37:04.357Z,53.30
2022-07-28T08:39:31.950Z,53.40
2022-07-28T08:42:07.052Z,53.40
2022-07-28T08:45:04.330Z,53.60
2022-07-28T08:47:46.021Z,53.40
2022-07-28T08:50:24.152Z,53.40
2022-07-28T08:52:52.754Z,53.40
2022-07-28T08:55:32.114Z,53.40
2022-07-28T08:58:00.317Z,53.40
2022-07-28T09:00:27.591Z,53.50
2022-07-28T09:02:55.211Z,53.50
2022-07-28T09:05:23.796Z,53.50
2022-07-28T09:07:54.729Z,53.50
2022-07-28T09:10:22.139Z,53.50
2022-07-28T09:12:48.798Z,53.50
2022-07-28T09:15:15.754Z,53.60
2022-07-28T09:17:42.718Z,53.50
2022-07-28T09:20:11.482Z,53.50
2022-07-28T09:22:59.149Z,53.60
2022-07-28T09:25:26.792Z,53.60
2022-07-28T09:27:53.638Z,53.60
2022-07-28T09:30:31.519Z,53.60
2022-07-28T09:33:42.870Z,53.60
2022-07-28T09:36:15.742Z,53.60
2022-07-28T09:38:42.622Z,53.60
2022-07-28T09:41:09.246Z,53.60
2022-07-28T09:43:39.113Z,53.60
2022-07-28T09:46:32.194Z,53.70
2022-07-28T09:49:00.379Z,53.70
2022-07-28T09:51:30.610Z,53.70
2022-07-28T09:54:14.628Z,53.70
2022-07-28T09:56:44.051Z,53.70
2022-07-28T09:59:11.554Z,53.80
2022-07-28T10:01:55.524Z,53.70
2022-07-28T10:04:41.347Z,53.70
2022-07-28T10:07:10.218Z,53.70
2022-07-28T10:09:38.473Z,53.70
2022-07-28T10:12:20.107Z,53.70
2022-07-28T10:14:52.066Z,53.80
2022-07-28T10:17:33.636Z,53.80
2022-07-28T10:20:03.489Z,53.80
2022-07-28T10:22:33.592Z,53.80
2022-07-28T10:25:12.457Z,53.80
2022-07-28T10:27:42.072Z,53.80
2022-07-28T10:30:09.682Z,53.80
2022-07-28T10:32:42.371Z,53.80
2022-07-28T10:35:12.352Z,53.80
2022-07-28T10:38:07.034Z,53.80
2022-07-28T10:40:38.882Z,53.80
2022-07-28T10:43:05.959Z,53.80
2022-07-28T10:45:55.264Z,53.80
2022-07-28T10:48:21.682Z,53.90
2022-07-28T10:50:51.955Z,53.90
2022-07-28T10:53:49.322Z,53.90
2022-07-28T10:56:27.192Z,53.90
2022-07-28T10:59:04.566Z,53.90
2022-07-28T11:01:49.861Z,53.90
2022-07-28T11:04:41.532Z,53.90
2022-07-28T11:07:12.697Z,53.90
2022-07-28T11:09:39.410Z,53.90
2022-07-28T11:12:06.485Z,54.00
2022-07-28T11:14:39.541Z,53.90
2022-07-28T11:17:10.075Z,53.90
2022-07-28T11:20:00.928Z,53.90
2022-07-28T11:22:33.190Z,54.00
2022-07-28T11:25:18.819Z,54.00
2022-07-28T11:27:51.159Z,54.00
2022-07-28T11:30:35.612Z,54.00
2022-07-28T11:33:11.152Z,54.00
2022-07-28T11:35:40.857Z,54.00
2022-07-28T11:38:09.127Z,54.00
2022-07-28T11:40:41.859Z,54.00
2022-07-28T11:43:35.329Z,54.00
2022-07-28T11:46:09.828Z,54.00
2022-07-28T11:48:39.367Z,54.00
2022-07-28T11:51:06.097Z,54.00
2022-07-28T11:53:36.777Z,54.00
2022-07-28T11:56:05.474Z,54.10
2022-07-28T11:58:32.093Z,54.10
2022-07-28T12:01:17.696Z,54.10
2022-07-28T12:03:49.268Z,54.10
2022-07-28T12:06:17.375Z,54.10
2022-07-28T12:09:00.347Z,54.10
2022-07-28T12:11:31.083Z,54.10
2022-07-28T12:14:02.990Z,54.10
2022-07-28T12:16:30.339Z,54.10
2022-07-28T12:19:00.576Z,54.10
2022-07-28T12:21:48.301Z,54.10
2022-07-28T12:24:19.445Z,54.10
2022-07-28T12:26:49.666Z,54.10
2022-07-28T12:29:17.134Z,54.10
2022-07-28T12:32:02.009Z,54.10
2022-07-28T12:34:30.223Z,54.10
2022-07-28T12:36:59.675Z,54.10
2022-07-28T12:39:26.722Z,54.10
2022-07-28T12:42:03.376Z,54.10
2022-07-28T12:44:49.958Z,54.10
2022-07-28T12:47:25.926Z,54.10
2022-07-28T12:50:14.014Z,54.20
2022-07-28T12:52:42.716Z,54.20
2022-07-28T12:55:32.637Z,54.20
2022-07-28T12:57:59.986Z,54.10
2022-07-28T13:00:33.197Z,54.20
2022-07-28T13:03:21.881Z,54.20
2022-07-28T13:06:03.659Z,54.20
2022-07-28T13:08:45.240Z,54.20
2022-07-28T13:14:03.146Z,54.20
2022-07-28T13:16:30.005Z,54.10
2022-07-28T13:19:00.689Z,54.20
2022-07-28T13:21:59.485Z,54.20
2022-07-28T13:24:28.710Z,54.10
2022-07-28T13:26:56.975Z,54.10
2022-07-28T13:29:23.819Z,54.20
2022-07-28T13:31:52.134Z,54.20
2022-07-28T13:34:19.192Z,54.10
2022-07-28T13:36:45.966Z,54.10
2022-07-28T13:39:14.010Z,54.20
2022-07-28T13:41:56.272Z,54.20
2022-07-28T13:44:25.356Z,54.20
2022-07-28T13:46:52.236Z,54.20
2022-07-28T13:49:21.141Z,54.20
2022-07-28T13:51:48.326Z,54.20
2022-07-28T13:54:15.234Z,54.10
2022-07-28T13:56:43.037Z,54.20
2022-07-28T13:59:10.377Z,54.20
2022-07-28T14:01:41.334Z,54.20
2022-07-28T14:04:14.682Z,54.20
2022-07-28T14:06:44.868Z,54.20
2022-07-28T14:09:18.264Z,54.20
2022-07-28T14:11:49.576Z,54.20
2022-07-28T14:14:20.438Z,54.20
2022-07-28T14:16:52.081Z,54.60
2022-07-28T14:19:23.004Z,54.30
2022-07-28T14:21:54.670Z,54.20
2022-07-28T14:24:21.391Z,54.50
2022-07-28T14:26:48.223Z,54.80
2022-07-28T14:29:15.105Z,54.90
2022-07-28T14:31:41.817Z,55.00
2022-07-28T14:34:08.489Z,55.10
2022-07-28T14:36:35.152Z,55.00
2022-07-28T14:39:01.962Z,55.10
2022-07-28T14:41:28.656Z,55.10
2022-07-28T14:43:56.335Z,55.10
2022-07-28T14:46:29.476Z,55.70
2022-07-28T14:48:57.075Z,55.30
2022-07-28T14:51:23.768Z,55.30
2022-07-28T14:53:51.685Z,55.30
2022-07-28T14:56:18.987Z,55.40
2022-07-28T14:58:45.682Z,55.30
2022-07-28T15:01:12.520Z,55.50
2022-07-28T15:03:43.435Z,55.30
2022-07-28T15:06:10.545Z,55.30
2022-07-28T15:08:37.221Z,55.70
2022-07-28T15:11:03.860Z,55.60
2022-07-28T15:13:30.499Z,55.40
2022-07-28T15:15:59.690Z,55.30
2022-07-28T15:18:26.430Z,55.30
2022-07-28T15:20:55.224Z,55.30
2022-07-28T15:23:22.892Z,55.30
2022-07-28T15:25:50.088Z,55.20
2022-07-28T15:28:17.868Z,55.20
2022-07-28T15:30:51.487Z,55.20
2022-07-28T15:33:20.457Z,55.20
2022-07-28T15:35:58.633Z,55.20
2022-07-28T15:38:27.765Z,55.20
2022-07-28T15:40:55.134Z,55.20
2022-07-28T15:43:23.964Z,55.10
2022-07-28T15:45:51.154Z,55.10
2022-07-28T15:48:17.833Z,55.10
2022-07-28T15:50:48.768Z,55.00
2022-07-28T15:53:16.502Z,55.10
2022-07-28T15:55:47.541Z,55.00
2022-07-28T15:58:17.461Z,55.00
2022-07-28T16:00:44.555Z,55.00
2022-07-28T16:03:11.600Z,55.00
2022-07-28T16:05:38.893Z,55.00
2022-07-28T16:08:05.764Z,55.00
2022-07-28T16:10:32.837Z,55.00
2022-07-28T16:12:59.617Z,55.00
2022-07-28T16:15:26.963Z,55.10
2022-07-28T16:17:54.303Z,55.10
2022-07-28T16:20:21.113Z,55.10
2022-07-28T16:22:47.919Z,55.10
2022-07-28T16:25:16.760Z,55.10
2022-07-28T16:27:44.523Z,55.10
2022-07-28T16:30:11.584Z,55.00
2022-07-28T16:32:39.324Z,55.00
2022-07-28T16:35:07.168Z,55.00
2022-07-28T16:37:35.432Z,55.10
2022-07-28T16:40:03.599Z,55.10
2022-07-28T16:42:30.329Z,55.10
2022-07-28T16:44:57.228Z,55.00
2022-07-28T16:47:23.917Z,55.10
2022-07-28T16:49:50.687Z,55.00
2022-07-28T16:52:17.328Z,55.10
2022-07-28T16:54:43.962Z,55.10
2022-07-28T16:57:12.529Z,55.10
2022-07-28T16:59:48.466Z,55.00
2022-07-28T17:02:16.638Z,55.10
2022-07-28T17:04:43.349Z,55.10
2022-07-28T17:07:10.119Z,55.10
2022-07-28T17:09:36.983Z,55.00
2022-07-28T17:12:03.908Z,55.10
2022-07-28T17:14:30.564Z,55.00
2022-07-28T17:16:57.298Z,55.10
2022-07-28T17:19:24.304Z,55.10
2022-07-28T17:21:51.017Z,55.10
2022-07-28T17:24:18.244Z,55.10
2022-07-28T17:29:34.338Z,55.10
2022-07-28T17:32:01.015Z,55.00
2022-07-28T17:34:27.663Z,55.10
2022-07-28T17:36:55.426Z,55.10
2022-07-28T17:39:22.141Z,55.10
2022-07-28T17:41:48.792Z,55.60
2022-07-28T17:44:15.655Z,55.00
2022-07-28T17:46:42.531Z,55.00
2022-07-28T17:49:09.498Z,55.00
2022-07-28T17:51:37.374Z,55.00
2022-07-28T17:54:04.348Z,55.00
2022-07-28T17:56:32.251Z,55.00
2022-07-28T17:58:59.118Z,55.00
2022-07-28T18:01:25.854Z,54.90
2022-07-28T18:03:58.094Z,55.00
2022-07-28T18:06:34.718Z,55.10
2022-07-28T18:09:08.309Z,55.10
2022-07-28T18:11:38.602Z,55.10
2022-07-28T18:14:24.946Z,54.90
2022-07-28T18:16:51.645Z,55.00
2022-07-28T18:19:18.573Z,55.00
2022-07-28T18:21:45.213Z,55.00
2022-07-28T18:24:12.021Z,55.00
2022-07-28T18:26:38.739Z,54.90
2022-07-28T18:29:05.367Z,54.90
2022-07-28T18:31:32.162Z,54.90
2022-07-28T18:33:59.053Z,54.90
2022-07-28T18:36:25.784Z,54.90
2022-07-28T18:38:52.437Z,54.90
2022-07-28T18:41:19.101Z,54.90
2022-07-28T18:43:45.748Z,54.90
2022-07-28T18:46:12.476Z,54.90
2022-07-28T18:48:39.174Z,54.90
2022-07-28T18:51:05.884Z,55.00
2022-07-28T18:53:32.566Z,54.90
2022-07-28T18:55:59.203Z,54.90
2022-07-28T18:58:25.914Z,55.00
2022-07-28T19:00:52.736Z,55.00
2022-07-28T19:03:19.415Z,55.00
2022-07-28T19:05:46.648Z,55.10
2022-07-28T19:08:13.396Z,55.10
2022-07-28T19:10:40.186Z,55.00
2022-07-28T19:13:12.784Z,55.10
2022-07-28T19:15:41.113Z,55.10
2022-07-28T19:18:10.855Z,55.10
2022-07-28T19:20:39.552Z,55.10
2022-07-28T19:23:06.209Z,55.10
2022-07-28T19:25:35.478Z,55.10
2022-07-28T19:28:02.104Z,55.10
2022-07-28T19:30:30.194Z,55.10
2022-07-28T19:32:56.789Z,55.10
2022-07-28T19:35:23.580Z,55.10
2022-07-28T19:37:50.731Z,55.10
2022-07-28T19:40:17.375Z,55.10
2022-07-28T19:42:44.017Z,55.10
2022-07-28T19:45:10.739Z,55.10
2022-07-28T19:47:37.368Z,55.30
2022-07-28T19:50:05.155Z,54.90
2022-07-28T19:52:31.923Z,52.50
2022-07-28T19:54:58.534Z,51.80
2022-07-28T19:57:26.770Z,52.90
2022-07-28T19:59:53.406Z,52.70
2022-07-28T20:02:20.096Z,52.30
2022-07-28T20:04:46.810Z,51.70
2022-07-28T20:07:14.169Z,52.00
2022-07-28T20:09:40.781Z,52.10
2022-07-28T20:12:08.713Z,52.30
2022-07-28T20:14:36.683Z,52.50
2022-07-28T20:17:03.353Z,52.80
2022-07-28T20:19:30.080Z,53.10
2022-07-28T20:21:57.199Z,53.20
2022-07-28T20:24:23.934Z,53.30
2022-07-28T20:26:50.647Z,53.40
2022-07-28T20:29:17.274Z,53.80
2022-07-28T20:31:43.966Z,53.70
2022-07-28T20:34:12.628Z,53.90
2022-07-28T20:36:39.802Z,53.90
2022-07-28T20:39:27.533Z,54.00
2022-07-28T20:41:53.418Z,53.90
2022-07-28T20:44:29.063Z,54.20
2022-07-28T20:47:00.633Z,54.10
2022-07-28T20:49:30.257Z,54.50
2022-07-28T20:51:58.095Z,54.60
2022-07-28T20:54:26.206Z,54.50
2022-07-28T20:56:52.887Z,54.70
2022-07-28T20:59:19.478Z,55.00
2022-07-28T21:01:46.173Z,55.20
2022-07-28T21:04:13.389Z,55.40
2022-07-28T21:06:51.031Z,55.50
2022-07-28T21:09:19.583Z,55.60
2022-07-28T21:11:46.240Z,55.70
2022-07-28T21:14:13.234Z,55.50
2022-07-28T21:16:40.185Z,55.80
2022-07-28T21:19:06.930Z,55.70
2022-07-28T21:21:33.553Z,55.70
2022-07-28T21:24:00.166Z,55.90
2022-07-28T21:26:26.851Z,55.90
2022-07-28T21:29:12.510Z,56.10
2022-07-28T21:32:03.785Z,55.90
2022-07-28T21:34:26.753Z,56.20
2022-07-28T21:36:53.346Z,56.20
2022-07-28T21:39:19.963Z,56.10
2022-07-28T21:41:46.615Z,56.10
2022-07-28T21:44:13.347Z,56.00
2022-07-28T21:46:42.279Z,55.90
2022-07-28T21:49:09.199Z,55.80
2022-07-28T21:51:36.057Z,55.80
2022-07-28T21:54:04.153Z,55.90
2022-07-28T21:56:34.157Z,55.80
2022-07-28T21:59:01.936Z,55.80
2022-07-28T22:01:28.748Z,55.80
2022-07-28T22:03:55.855Z,55.80
2022-07-28T22:06:22.559Z,55.80
2022-07-28T22:08:53.322Z,55.80
2022-07-28T22:11:21.154Z,55.80
2022-07-28T22:13:47.783Z,55.80
2022-07-28T22:16:14.734Z,55.90
2022-07-28T22:18:41.471Z,55.90
2022-07-28T22:21:08.101Z,55.90
2022-07-28T22:23:34.884Z,55.90
2022-07-28T22:26:01.565Z,55.90
2022-07-28T22:28:29.756Z,55.90
2022-07-28T22:30:57.794Z,55.90
2022-07-28T22:33:24.542Z,55.90
2022-07-28T22:35:51.446Z,55.90
2022-07-28T22:38:18.237Z,55.90
2022-07-28T22:40:44.955Z,56.00
2022-07-28T22:43:11.630Z,56.00
2022-07-28T22:45:49.539Z,56.00
2022-07-28T22:48:17.958Z,55.90
2022-07-28T22:50:44.660Z,56.00
2022-07-28T22:53:11.296Z,56.00
2022-07-28T22:55:37.900Z,56.00
2022-07-28T22:58:05.707Z,56.00
2022-07-28T23:00:32.557Z,56.00
2022-07-28T23:03:00.458Z,56.00
2022-07-28T23:05:28.676Z,56.00
2022-07-28T23:07:57.637Z,56.10
2022-07-28T23:10:26.155Z,56.00
2022-07-28T23:12:54.207Z,56.10
2022-07-28T23:15:22.693Z,56.10
2022-07-28T23:17:50.318Z,56.10
2022-07-28T23:20:17.089Z,56.10
2022-07-28T23:22:43.713Z,56.10
2022-07-28T23:25:11.660Z,56.10
2022-07-28T23:27:38.350Z,56.20
2022-07-28T23:30:06.017Z,56.20
2022-07-28T23:32:32.601Z,56.20
2022-07-28T23:34:59.197Z,56.20
2022-07-28T23:37:25.936Z,56.10
2022-07-28T23:39:52.551Z,56.20
2022-07-28T23:42:19.222Z,56.20
2022-07-28T23:44:45.839Z,56.20
2022-07-28T23:47:12.544Z,56.20
2022-07-28T23:49:39.206Z,56.20
2022-07-28T23:52:05.878Z,56.20
2022-07-28T23:54:32.519Z,56.20
2022-07-28T23:56:59.124Z,56.20
2022-07-28T23:59:25.742Z,56.30
